Time;durP1;ratioP1;P1;durP2;ratioP2;P2;SDS_P1;SDS_P2;PMS_P1;PMS_P2;Temp;Humidity;BMP_temperature;BMP_pressure;BME280_temperature;BME280_humidity;BME280_pressure;Samples;Min_cycle;Max_cycle;Signal;HPM_P1;HPM_P2
2022/12/28 00:01:44;;;;;;;6.07;2.10;;;;;;;;;;5013633;28;20240;-51
2022/12/28 00:04:13;;;;;;;4.77;2.13;;;;;;;;;;5013608;28;20247;-51
2022/12/28 00:06:38;;;;;;;2.90;1.93;;;;;;;;;;5013457;28;20647;-51
2022/12/28 00:09:04;;;;;;;3.07;1.90;;;;;;;;;;5013269;28;20440;-51
2022/12/28 00:11:32;;;;;;;3.40;1.93;;;;;;;;;;5013379;28;20288;-51
2022/12/28 00:13:59;;;;;;;4.27;1.83;;;;;;;;;;5013155;28;20440;-51
2022/12/28 00:16:26;;;;;;;4.70;1.90;;;;;;;;;;5012745;28;21246;-51
2022/12/28 00:18:52;;;;;;;5.43;2.07;;;;;;;;;;5013243;28;20479;-51
2022/12/28 00:21:19;;;;;;;5.00;2.00;;;;;;;;;;5013026;28;20467;-50
2022/12/28 00:23:47;;;;;;;6.73;2.00;;;;;;;;;;5012985;28;20519;-50
2022/12/28 00:26:13;;;;;;;2.50;1.83;;;;;;;;;;5013143;28;20548;-50
2022/12/28 00:28:40;;;;;;;5.50;1.97;;;;;;;;;;5013102;28;20515;-51
2022/12/28 00:31:07;;;;;;;5.00;2.10;;;;;;;;;;5012746;28;20292;-51
2022/12/28 00:33:33;;;;;;;5.73;2.07;;;;;;;;;;5009154;28;20487;-50
2022/12/28 00:35:59;;;;;;;6.23;2.27;;;;;;;;;;5012601;28;20812;-50
2022/12/28 00:38:26;;;;;;;5.10;2.10;;;;;;;;;;5012748;28;20440;-50
2022/12/28 00:40:52;;;;;;;3.07;1.90;;;;;;;;;;5012474;28;20479;-50
2022/12/28 00:43:18;;;;;;;4.53;1.80;;;;;;;;;;5012622;28;20444;-50
2022/12/28 00:45:46;;;;;;;3.97;1.80;;;;;;;;;;5012636;28;20193;-49
2022/12/28 00:48:13;;;;;;;4.53;2.00;;;;;;;;;;5012608;28;21030;-48
2022/12/28 00:50:39;;;;;;;3.63;1.87;;;;;;;;;;5012713;28;20503;-49
2022/12/28 00:53:06;;;;;;;6.83;1.90;;;;;;;;;;5012712;28;20931;-49
2022/12/28 00:55:32;;;;;;;8.40;2.30;;;;;;;;;;5012678;28;20444;-49
2022/12/28 00:57:58;;;;;;;5.70;1.97;;;;;;;;;;5012807;28;20537;-49
2022/12/28 01:00:24;;;;;;;4.20;1.70;;;;;;;;;;5012553;28;20437;-49
2022/12/28 01:02:51;;;;;;;4.17;1.73;;;;;;;;;;5012873;28;21018;-50
2022/12/28 01:05:17;;;;;;;3.07;1.70;;;;;;;;;;5012722;28;20653;-50
2022/12/28 01:07:43;;;;;;;4.50;2.07;;;;;;;;;;5012746;28;20449;-49
2022/12/28 01:10:09;;;;;;;3.77;1.83;;;;;;;;;;5012344;28;20226;-50
2022/12/28 01:12:35;;;;;;;4.23;1.80;;;;;;;;;;5012610;28;20232;-50
2022/12/28 01:15:01;;;;;;;4.30;1.97;;;;;;;;;;5012419;28;20538;-50
2022/12/28 01:17:28;;;;;;;6.73;2.30;;;;;;;;;;5011659;28;20432;-50
2022/12/28 01:19:56;;;;;;;2.97;1.60;;;;;;;;;;5012296;28;20487;-50
2022/12/28 01:22:22;;;;;;;3.93;2.20;;;;;;;;;;5011561;28;20935;-49
2022/12/28 01:24:48;;;;;;;2.67;1.90;;;;;;;;;;5011865;28;20459;-50
2022/12/28 01:27:14;;;;;;;5.43;2.00;;;;;;;;;;5011560;28;20448;-50
2022/12/28 01:29:40;;;;;;;3.43;1.90;;;;;;;;;;5011289;28;20700;-50
2022/12/28 01:32:06;;;;;;;5.53;1.80;;;;;;;;;;5012034;28;20455;-49
2022/12/28 01:34:32;;;;;;;3.63;2.00;;;;;;;;;;5012038;28;20225;-50
2022/12/28 01:36:59;;;;;;;4.83;2.00;;;;;;;;;;5012009;28;20225;-49
2022/12/28 01:39:25;;;;;;;4.80;1.77;;;;;;;;;;5011523;28;20240;-49
2022/12/28 01:41:51;;;;;;;2.97;1.90;;;;;;;;;;5011595;28;20445;-50
2022/12/28 01:44:35;;;;;;;3.00;1.97;;;;;;;;;;5011750;28;20201;-49
2022/12/28 01:47:03;;;;;;;3.97;1.80;;;;;;;;;;5011806;28;20197;-50
2022/12/28 01:49:31;;;;;;;7.67;2.30;;;;;;;;;;5011694;28;20811;-49
2022/12/28 01:51:58;;;;;;;4.13;2.00;;;;;;;;;;5011789;28;20443;-49
2022/12/28 01:54:28;;;;;;;5.37;2.43;;;;;;;;;;5011645;28;20459;-50
2022/12/28 01:56:54;;;;;;;4.17;1.83;;;;;;;;;;5011693;28;20579;-49
2022/12/28 01:59:21;;;;;;;4.53;1.97;;;;;;;;;;5011491;28;20464;-49
2022/12/28 02:01:48;;;;;;;4.93;1.83;;;;;;;;;;5011851;28;20777;-50
2022/12/28 02:04:14;;;;;;;9.50;1.83;;;;;;;;;;5011743;28;20441;-50
2022/12/28 02:06:40;;;;;;;4.90;1.90;;;;;;;;;;5011748;28;20818;-50
2022/12/28 02:09:09;;;;;;;4.17;2.10;;;;;;;;;;5011607;28;20535;-50
2022/12/28 02:11:37;;;;;;;4.93;2.00;;;;;;;;;;5011692;28;20287;-49
2022/12/28 02:14:04;;;;;;;5.03;2.07;;;;;;;;;;5011592;28;20251;-49
2022/12/28 02:16:30;;;;;;;3.30;1.87;;;;;;;;;;5011531;28;21170;-49
2022/12/28 02:18:56;;;;;;;4.80;1.90;;;;;;;;;;5011673;28;20439;-49
2022/12/28 02:21:24;;;;;;;4.60;2.10;;;;;;;;;;5011527;28;20228;-49
2022/12/28 02:24:07;;;;;;;6.17;1.80;;;;;;;;;;5011500;28;20231;-49
2022/12/28 02:26:38;;;;;;;2.50;1.73;;;;;;;;;;5011469;28;20441;-50
2022/12/28 02:29:11;;;;;;;4.67;2.30;;;;;;;;;;5011596;28;20456;-49
2022/12/28 02:31:41;;;;;;;5.20;2.10;;;;;;;;;;5011591;28;20489;-49
2022/12/28 02:34:10;;;;;;;4.30;1.60;;;;;;;;;;5011375;28;20444;-49
2022/12/28 02:36:40;;;;;;;5.27;1.83;;;;;;;;;;5011411;28;20483;-49
2022/12/28 02:39:19;;;;;;;5.57;1.83;;;;;;;;;;5011742;28;20502;-49
2022/12/28 02:41:46;;;;;;;2.70;1.80;;;;;;;;;;5015389;28;20446;-49
2022/12/28 02:50:04;;;;;;;4.40;1.90;;;;;;;;;;5015168;28;20452;-50
2022/12/28 02:52:38;;;;;;;5.57;1.80;;;;;;;;;;5015283;28;20474;-49
2022/12/28 02:58:06;;;;;;;2.73;1.77;;;;;;;;;;5015054;28;20516;-49
2022/12/28 03:00:38;;;;;;;2.17;1.70;;;;;;;;;;5014844;28;20447;-49
2022/12/28 03:03:09;;;;;;;3.63;1.80;;;;;;;;;;5015031;28;20452;-49
2022/12/28 03:08:30;;;;;;;3.20;1.73;;;;;;;;;;5014927;28;20495;-49
2022/12/28 03:10:59;;;;;;;2.63;1.73;;;;;;;;;;5014715;28;20508;-49
2022/12/28 03:13:42;;;;;;;3.83;2.00;;;;;;;;;;5014645;28;20445;-49
2022/12/28 03:16:12;;;;;;;3.33;1.80;;;;;;;;;;5014362;28;20801;-49
2022/12/28 03:32:33;;;;;;;2.43;1.90;;;;;;;;;;5014524;28;20432;-48
2022/12/28 03:34:59;;;;;;;3.17;2.13;;;;;;;;;;5014352;28;20975;-49
2022/12/28 03:37:27;;;;;;;3.40;1.60;;;;;;;;;;5014435;28;20540;-49
2022/12/28 03:39:57;;;;;;;6.27;1.83;;;;;;;;;;5014207;28;20233;-49
2022/12/28 03:45:15;;;;;;;5.30;2.07;;;;;;;;;;5014359;28;20428;-49
2022/12/28 03:47:44;;;;;;;6.23;2.43;;;;;;;;;;5014275;28;20432;-49
2022/12/28 03:50:11;;;;;;;5.07;2.10;;;;;;;;;;5013917;28;20512;-49
2022/12/28 03:52:37;;;;;;;6.43;2.13;;;;;;;;;;5013464;28;20436;-48
2022/12/28 03:55:03;;;;;;;5.23;2.07;;;;;;;;;;5013843;28;20445;-49
2022/12/28 03:57:29;;;;;;;2.83;1.80;;;;;;;;;;5013725;28;20860;-48
2022/12/28 03:59:55;;;;;;;2.97;1.80;;;;;;;;;;5014137;28;20479;-48
2022/12/28 04:02:21;;;;;;;7.93;2.13;;;;;;;;;;5013801;28;20226;-48
2022/12/28 04:04:48;;;;;;;5.20;2.10;;;;;;;;;;5014048;28;20543;-48
2022/12/28 04:07:14;;;;;;;3.10;2.17;;;;;;;;;;5013853;28;20288;-47
2022/12/28 04:09:40;;;;;;;2.27;1.90;;;;;;;;;;5013668;28;20536;-49
2022/12/28 04:12:06;;;;;;;2.43;1.80;;;;;;;;;;5013874;28;20201;-49
2022/12/28 04:14:32;;;;;;;4.73;2.00;;;;;;;;;;5013998;28;20198;-49
2022/12/28 04:16:58;;;;;;;3.47;1.90;;;;;;;;;;5013732;28;20798;-50
2022/12/28 04:19:24;;;;;;;3.77;2.30;;;;;;;;;;5013684;28;20213;-50
2022/12/28 04:21:51;;;;;;;4.67;2.67;;;;;;;;;;5013668;28;20656;-49
2022/12/28 04:24:17;;;;;;;3.73;2.20;;;;;;;;;;5013365;28;20566;-49
2022/12/28 04:26:43;;;;;;;4.20;2.50;;;;;;;;;;5013558;28;20512;-50
2022/12/28 04:29:09;;;;;;;5.73;2.27;;;;;;;;;;5013371;28;20210;-50
2022/12/28 04:31:35;;;;;;;3.83;2.23;;;;;;;;;;5013381;28;20221;-50
2022/12/28 04:34:01;;;;;;;5.50;2.57;;;;;;;;;;5013330;28;20591;-50
2022/12/28 04:36:27;;;;;;;5.37;2.33;;;;;;;;;;5013088;28;20205;-50
2022/12/28 04:38:55;;;;;;;3.00;2.00;;;;;;;;;;5013004;28;20208;-48
2022/12/28 04:41:21;;;;;;;3.63;2.20;;;;;;;;;;5013167;28;20198;-48
2022/12/28 04:43:47;;;;;;;4.43;2.30;;;;;;;;;;5012972;28;20439;-50
2022/12/28 04:46:14;;;;;;;3.73;2.20;;;;;;;;;;5013130;28;20204;-47
2022/12/28 04:48:40;;;;;;;5.20;2.30;;;;;;;;;;5013214;28;20294;-47
2022/12/28 04:51:07;;;;;;;4.00;2.07;;;;;;;;;;5012840;28;20483;-48
2022/12/28 04:53:35;;;;;;;3.07;1.80;;;;;;;;;;5012921;28;20983;-48
2022/12/28 04:56:03;;;;;;;2.43;2.00;;;;;;;;;;5012911;28;20432;-47
2022/12/28 04:58:29;;;;;;;5.57;2.47;;;;;;;;;;5012847;28;20448;-48
2022/12/28 05:01:01;;;;;;;4.23;2.27;;;;;;;;;;5012922;28;20468;-48
2022/12/28 05:03:27;;;;;;;2.47;1.90;;;;;;;;;;5012617;28;20202;-49
2022/12/28 05:05:53;;;;;;;5.50;1.97;;;;;;;;;;5012814;28;20989;-48
2022/12/28 05:08:19;;;;;;;4.57;2.20;;;;;;;;;;5012646;28;20198;-49
2022/12/28 05:10:44;;;;;;;3.43;1.80;;;;;;;;;;5012715;28;20502;-49
2022/12/28 05:13:12;;;;;;;3.93;2.10;;;;;;;;;;5012640;28;20198;-48
2022/12/28 05:15:38;;;;;;;6.20;2.50;;;;;;;;;;5012578;28;20206;-48
2022/12/28 05:18:04;;;;;;;4.37;2.37;;;;;;;;;;5012580;28;20451;-49
2022/12/28 05:20:30;;;;;;;2.70;1.90;;;;;;;;;;5012572;28;20276;-49
2022/12/28 05:22:56;;;;;;;7.43;3.43;;;;;;;;;;5012556;28;20524;-48
2022/12/28 05:25:22;;;;;;;9.27;4.43;;;;;;;;;;5012549;28;20227;-48
2022/12/28 05:27:48;;;;;;;3.17;2.07;;;;;;;;;;5012621;28;20768;-49
2022/12/28 05:30:15;;;;;;;4.17;2.53;;;;;;;;;;5012110;28;20228;-49
2022/12/28 05:32:41;;;;;;;2.20;1.80;;;;;;;;;;5012335;28;20198;-49
2022/12/28 05:35:08;;;;;;;4.90;2.10;;;;;;;;;;5012229;28;20471;-49
2022/12/28 05:37:34;;;;;;;5.00;1.70;;;;;;;;;;5012233;28;20205;-49
2022/12/28 05:40:00;;;;;;;3.27;1.87;;;;;;;;;;5011789;28;20491;-49
2022/12/28 05:42:26;;;;;;;4.60;2.00;;;;;;;;;;5012064;28;20669;-49
2022/12/28 05:44:52;;;;;;;3.77;1.70;;;;;;;;;;5012002;28;20450;-49
2022/12/28 05:47:19;;;;;;;2.80;1.90;;;;;;;;;;5011935;28;20237;-49
2022/12/28 05:49:46;;;;;;;2.70;2.00;;;;;;;;;;5011899;28;20699;-49
2022/12/28 05:52:12;;;;;;;6.30;2.27;;;;;;;;;;5011933;28;20198;-47
2022/12/28 05:54:38;;;;;;;3.33;1.93;;;;;;;;;;5011919;28;20275;-48
2022/12/28 05:57:04;;;;;;;3.30;2.07;;;;;;;;;;5011960;28;20209;-48
2022/12/28 05:59:30;;;;;;;3.50;2.03;;;;;;;;;;5011901;28;20569;-48
2022/12/28 06:01:56;;;;;;;3.70;2.43;;;;;;;;;;5011900;28;20193;-48
2022/12/28 06:04:24;;;;;;;3.63;2.50;;;;;;;;;;5011770;28;20572;-48
2022/12/28 06:06:50;;;;;;;4.80;2.57;;;;;;;;;;5011829;28;20221;-49
2022/12/28 06:09:16;;;;;;;3.70;2.37;;;;;;;;;;5011611;28;20433;-48
2022/12/28 06:11:42;;;;;;;4.40;2.20;;;;;;;;;;5011649;28;20558;-49
2022/12/28 06:14:08;;;;;;;2.50;2.30;;;;;;;;;;5013728;28;20197;-49
2022/12/28 06:16:36;;;;;;;3.43;2.40;;;;;;;;;;5018176;28;20284;-48
2022/12/28 06:19:04;;;;;;;5.07;2.70;;;;;;;;;;5018103;28;20201;-49
2022/12/28 06:21:32;;;;;;;3.50;2.40;;;;;;;;;;5018381;28;20195;-48
2022/12/28 06:23:59;;;;;;;5.87;2.80;;;;;;;;;;5018115;28;20208;-48
2022/12/28 06:26:26;;;;;;;3.23;2.80;;;;;;;;;;5018244;28;20208;-47
2022/12/28 06:28:52;;;;;;;3.43;2.83;;;;;;;;;;5018190;28;20445;-47
2022/12/28 06:31:19;;;;;;;5.73;3.20;;;;;;;;;;5017969;28;20256;-48
2022/12/28 06:33:46;;;;;;;4.43;3.17;;;;;;;;;;5017949;28;20747;-48
2022/12/28 06:36:13;;;;;;;4.43;2.83;;;;;;;;;;5017966;28;20518;-48
2022/12/28 06:38:40;;;;;;;6.27;4.30;;;;;;;;;;5018045;28;20209;-48
2022/12/28 06:41:07;;;;;;;3.63;3.10;;;;;;;;;;5018036;28;20703;-48
2022/12/28 06:43:33;;;;;;;3.70;2.90;;;;;;;;;;5018002;28;20938;-49
2022/12/28 06:46:00;;;;;;;7.37;3.43;;;;;;;;;;5018130;28;20523;-48
2022/12/28 06:48:26;;;;;;;3.63;3.00;;;;;;;;;;5017980;28;20217;-48
2022/12/28 06:50:56;;;;;;;6.80;3.43;;;;;;;;;;5017607;28;20546;-49
2022/12/28 06:53:22;;;;;;;4.30;3.00;;;;;;;;;;5016075;28;20197;-49
2022/12/28 06:55:53;;;;;;;4.83;3.40;;;;;;;;;;5017832;28;20202;-49
2022/12/28 06:58:19;;;;;;;5.67;3.10;;;;;;;;;;5017840;28;20443;-49
2022/12/28 07:00:45;;;;;;;3.20;2.70;;;;;;;;;;5017842;28;20804;-51
2022/12/28 07:03:11;;;;;;;3.23;2.87;;;;;;;;;;5017584;28;20256;-49
2022/12/28 07:05:37;;;;;;;4.13;3.00;;;;;;;;;;5017110;28;20224;-50
2022/12/28 07:08:03;;;;;;;3.40;3.10;;;;;;;;;;5016926;28;20602;-49
2022/12/28 07:10:29;;;;;;;4.13;3.10;;;;;;;;;;5017557;28;20232;-50
2022/12/28 07:12:56;;;;;;;3.23;2.80;;;;;;;;;;5017762;28;20198;-50
2022/12/28 07:15:22;;;;;;;4.20;3.10;;;;;;;;;;5017841;28;20208;-50
2022/12/28 07:17:48;;;;;;;3.00;2.70;;;;;;;;;;5017930;28;20202;-50
2022/12/28 07:20:14;;;;;;;6.40;2.83;;;;;;;;;;5017603;28;20611;-50
2022/12/28 07:22:40;;;;;;;3.20;2.90;;;;;;;;;;5017629;28;20288;-50
2022/12/28 07:25:07;;;;;;;4.10;2.80;;;;;;;;;;5015820;28;20232;-50
2022/12/28 07:27:34;;;;;;;4.77;3.53;;;;;;;;;;4994699;28;20210;-51
2022/12/28 07:30:01;;;;;;;3.23;2.90;;;;;;;;;;4995330;28;20229;-52
2022/12/28 07:32:27;;;;;;;3.67;2.80;;;;;;;;;;4995042;28;20772;-50
2022/12/28 07:34:53;;;;;;;3.30;2.97;;;;;;;;;;4995426;28;20224;-51
2022/12/28 07:37:19;;;;;;;3.30;3.00;;;;;;;;;;4995008;28;20207;-51
2022/12/28 07:39:45;;;;;;;4.73;2.87;;;;;;;;;;4994617;28;20238;-51
2022/12/28 07:42:11;;;;;;;3.53;2.90;;;;;;;;;;4994586;28;20708;-51
2022/12/28 07:44:37;;;;;;;3.60;2.70;;;;;;;;;;4994677;28;20212;-51
2022/12/28 07:47:04;;;;;;;3.73;2.63;;;;;;;;;;4994717;28;20735;-51
2022/12/28 07:49:30;;;;;;;3.60;2.97;;;;;;;;;;4994542;28;20210;-50
2022/12/28 07:51:56;;;;;;;3.47;3.27;;;;;;;;;;4994452;28;20230;-51
2022/12/28 07:54:22;;;;;;;3.93;3.00;;;;;;;;;;4994362;28;20633;-50
2022/12/28 07:56:48;;;;;;;3.87;3.43;;;;;;;;;;4994394;28;20256;-50
2022/12/28 07:59:14;;;;;;;5.77;2.70;;;;;;;;;;4994253;28;20600;-50
2022/12/28 08:01:40;;;;;;;3.20;2.90;;;;;;;;;;4994221;28;20214;-52
2022/12/28 08:04:09;;;;;;;4.27;2.97;;;;;;;;;;4994507;28;20213;-50
2022/12/28 08:06:35;;;;;;;3.03;2.70;;;;;;;;;;4994295;28;20218;-52
2022/12/28 08:09:02;;;;;;;3.50;2.70;;;;;;;;;;4993527;28;20204;-51
2022/12/28 08:11:28;;;;;;;3.10;2.80;;;;;;;;;;4992695;28;20632;-51
2022/12/28 08:13:55;;;;;;;2.70;2.50;;;;;;;;;;4994290;28;20673;-51
2022/12/28 08:16:22;;;;;;;3.50;3.17;;;;;;;;;;4994019;28;20568;-52
2022/12/28 08:18:48;;;;;;;5.50;2.83;;;;;;;;;;4994195;28;20677;-52
2022/12/28 08:21:17;;;;;;;3.47;3.17;;;;;;;;;;4993672;28;20204;-52
2022/12/28 08:23:43;;;;;;;3.87;3.20;;;;;;;;;;4993920;28;20289;-52
2022/12/28 08:26:10;;;;;;;3.50;3.20;;;;;;;;;;4994257;28;20249;-51
2022/12/28 08:28:37;;;;;;;3.57;3.10;;;;;;;;;;4993912;28;20202;-51
2022/12/28 08:31:06;;;;;;;3.07;2.80;;;;;;;;;;4993890;28;20444;-50
2022/12/28 08:33:32;;;;;;;3.07;2.77;;;;;;;;;;4993700;28;20568;-49
2022/12/28 08:35:58;;;;;;;3.30;2.90;;;;;;;;;;4993752;28;20214;-50
2022/12/28 08:38:26;;;;;;;3.90;3.10;;;;;;;;;;4993128;28;20198;-49
2022/12/28 08:40:54;;;;;;;2.80;2.60;;;;;;;;;;4993381;28;20273;-50
2022/12/28 08:43:20;;;;;;;3.10;2.80;;;;;;;;;;4993412;28;20214;-50
2022/12/28 08:45:55;;;;;;;3.07;2.70;;;;;;;;;;4993515;28;20205;-51
2022/12/28 08:48:21;;;;;;;2.70;2.50;;;;;;;;;;4993066;28;20207;-50
2022/12/28 08:50:47;;;;;;;2.70;2.50;;;;;;;;;;4993299;28;20317;-50
2022/12/28 08:53:13;;;;;;;2.67;2.20;;;;;;;;;;4993083;28;20272;-49
2022/12/28 08:55:40;;;;;;;4.13;2.40;;;;;;;;;;4993060;28;21056;-49
2022/12/28 08:58:06;;;;;;;2.63;2.43;;;;;;;;;;4993295;28;20214;-49
2022/12/28 09:00:32;;;;;;;2.50;2.30;;;;;;;;;;4993085;28;20194;-49
2022/12/28 09:02:58;;;;;;;3.60;2.60;;;;;;;;;;4993262;28;20657;-49
2022/12/28 09:05:24;;;;;;;2.27;2.07;;;;;;;;;;4993133;28;20198;-50
2022/12/28 09:07:51;;;;;;;2.23;2.00;;;;;;;;;;4992698;28;20702;-49
2022/12/28 09:10:16;;;;;;;4.10;2.43;;;;;;;;;;4992771;28;20226;-50
2022/12/28 09:12:44;;;;;;;2.43;2.23;;;;;;;;;;4992973;28;20649;-49
2022/12/28 09:15:10;;;;;;;2.63;2.40;;;;;;;;;;4992526;28;20826;-50
2022/12/28 09:17:36;;;;;;;2.40;2.20;;;;;;;;;;4992568;28;20198;-49
2022/12/28 09:20:02;;;;;;;2.20;2.10;;;;;;;;;;4992881;28;20565;-50
2022/12/28 09:22:30;;;;;;;2.40;2.20;;;;;;;;;;4992654;28;20229;-50
2022/12/28 09:24:56;;;;;;;3.60;2.30;;;;;;;;;;4992733;28;20237;-49
2022/12/28 09:27:22;;;;;;;2.17;2.00;;;;;;;;;;4992604;28;20205;-49
2022/12/28 09:29:49;;;;;;;2.33;2.13;;;;;;;;;;4992687;28;20231;-49
2022/12/28 09:32:15;;;;;;;2.27;1.93;;;;;;;;;;4992534;28;20237;-50
2022/12/28 09:34:41;;;;;;;2.20;2.10;;;;;;;;;;4992494;28;20227;-49
2022/12/28 09:37:07;;;;;;;1.90;1.80;;;;;;;;;;4992563;28;20206;-47
2022/12/28 09:39:33;;;;;;;2.80;1.93;;;;;;;;;;4991911;28;20338;-48
2022/12/28 09:42:01;;;;;;;2.73;1.90;;;;;;;;;;4992546;28;20748;-50
2022/12/28 09:44:34;;;;;;;2.20;2.00;;;;;;;;;;4992546;28;20202;-49
2022/12/28 09:47:03;;;;;;;2.97;1.80;;;;;;;;;;4992892;28;20202;-48
2022/12/28 09:49:33;;;;;;;3.00;2.10;;;;;;;;;;4991875;28;20190;-49
2022/12/28 09:52:03;;;;;;;1.57;1.47;;;;;;;;;;4992485;28;20233;-49
2022/12/28 09:54:29;;;;;;;2.00;1.90;;;;;;;;;;4992436;28;20199;-50
2022/12/28 09:56:56;;;;;;;1.90;1.80;;;;;;;;;;4992871;28;20205;-50
2022/12/28 09:59:23;;;;;;;1.80;1.70;;;;;;;;;;4990490;28;20290;-49
2022/12/28 10:01:52;;;;;;;2.00;1.90;;;;;;;;;;4992563;28;20199;-50
2022/12/28 10:04:19;;;;;;;1.90;1.70;;;;;;;;;;4992353;28;20221;-50
2022/12/28 10:06:46;;;;;;;1.80;1.70;;;;;;;;;;4992444;28;20199;-49
2022/12/28 10:09:13;;;;;;;2.40;1.87;;;;;;;;;;4992341;28;20657;-50
2022/12/28 10:11:40;;;;;;;1.80;1.70;;;;;;;;;;4992317;28;20225;-49
2022/12/28 10:14:15;;;;;;;2.10;1.90;;;;;;;;;;4992472;28;20241;-49
2022/12/28 10:16:41;;;;;;;2.10;2.00;;;;;;;;;;4992514;28;20671;-49
2022/12/28 10:19:07;;;;;;;1.80;1.70;;;;;;;;;;4992298;28;20688;-49
2022/12/28 10:21:35;;;;;;;1.70;1.60;;;;;;;;;;4992127;28;20237;-50
2022/12/28 10:24:03;;;;;;;2.90;1.90;;;;;;;;;;4992336;28;20210;-49
2022/12/28 10:26:29;;;;;;;6.70;4.97;;;;;;;;;;4992065;28;20198;-50
2022/12/28 10:28:57;;;;;;;1.83;1.73;;;;;;;;;;4992188;28;20569;-49
2022/12/28 10:31:31;;;;;;;3.43;1.80;;;;;;;;;;4991895;28;20230;-49
2022/12/28 10:33:57;;;;;;;2.67;2.47;;;;;;;;;;4990293;28;20247;-50
2022/12/28 10:36:23;;;;;;;2.03;1.83;;;;;;;;;;4989678;28;20202;-49
2022/12/28 10:38:53;;;;;;;1.80;1.70;;;;;;;;;;4991373;28;20206;-49
2022/12/28 10:41:20;;;;;;;1.90;1.80;;;;;;;;;;4991308;28;20206;-50
2022/12/28 10:43:47;;;;;;;1.83;1.60;;;;;;;;;;4991336;28;20649;-49
2022/12/28 10:46:15;;;;;;;1.87;1.50;;;;;;;;;;4991480;28;20202;-50
2022/12/28 10:48:43;;;;;;;2.57;1.60;;;;;;;;;;4991316;28;20210;-50
2022/12/28 10:51:12;;;;;;;1.83;1.70;;;;;;;;;;4991192;28;20230;-49
2022/12/28 10:53:41;;;;;;;2.60;1.63;;;;;;;;;;4991336;28;20202;-49
2022/12/28 10:56:19;;;;;;;1.63;1.53;;;;;;;;;;4991709;28;20222;-49
2022/12/28 10:58:45;;;;;;;1.70;1.60;;;;;;;;;;4992017;28;20202;-50
2022/12/28 11:01:16;;;;;;;2.00;1.70;;;;;;;;;;4994273;28;20289;-49
2022/12/28 11:03:43;;;;;;;2.17;1.70;;;;;;;;;;4995447;28;20649;-49
2022/12/28 11:06:11;;;;;;;1.70;1.60;;;;;;;;;;4995477;28;20209;-50
2022/12/28 11:08:37;;;;;;;2.00;1.90;;;;;;;;;;4995427;28;20641;-49
2022/12/28 11:11:03;;;;;;;1.70;1.60;;;;;;;;;;4995288;28;20236;-51
2022/12/28 11:13:31;;;;;;;1.70;1.60;;;;;;;;;;4995156;28;20692;-49
2022/12/28 11:15:57;;;;;;;1.90;1.80;;;;;;;;;;4995431;28;20203;-49
2022/12/28 11:18:23;;;;;;;1.87;1.77;;;;;;;;;;4995301;28;20194;-50
2022/12/28 11:20:50;;;;;;;1.80;1.70;;;;;;;;;;4995259;28;20661;-51
2022/12/28 11:23:17;;;;;;;1.97;1.87;;;;;;;;;;4994483;28;20297;-50
2022/12/28 11:25:44;;;;;;;1.83;1.73;;;;;;;;;;4995173;28;20221;-50
2022/12/28 11:28:13;;;;;;;1.70;1.60;;;;;;;;;;4995112;28;20194;-50
2022/12/28 11:30:40;;;;;;;2.10;1.90;;;;;;;;;;4994946;28;20261;-49
2022/12/28 11:33:08;;;;;;;1.73;1.63;;;;;;;;;;4995026;28;20657;-50
2022/12/28 11:35:37;;;;;;;1.90;1.80;;;;;;;;;;4994583;28;20308;-49
2022/12/28 11:38:05;;;;;;;2.67;2.00;;;;;;;;;;4994557;28;20695;-50
2022/12/28 11:40:47;;;;;;;1.90;1.80;;;;;;;;;;4991596;28;20240;-49
2022/12/28 11:43:38;;;;;;;1.80;1.70;;;;;;;;;;4994513;28;20198;-50
2022/12/28 11:46:28;;;;;;;2.03;1.90;;;;;;;;;;4994597;28;20199;-49
2022/12/28 11:48:58;;;;;;;2.40;2.20;;;;;;;;;;4994267;28;20210;-49
2022/12/28 11:51:24;;;;;;;2.57;2.37;;;;;;;;;;4994335;28;20241;-49
2022/12/28 11:53:52;;;;;;;3.10;2.10;;;;;;;;;;4994571;28;20195;-50
2022/12/28 11:56:18;;;;;;;2.30;2.20;;;;;;;;;;4994314;28;20194;-49
2022/12/28 11:58:59;;;;;;;2.70;2.33;;;;;;;;;;4994069;28;20202;-50
2022/12/28 12:01:43;;;;;;;2.80;2.50;;;;;;;;;;4993112;28;20743;-49
2022/12/28 12:04:36;;;;;;;2.63;2.43;;;;;;;;;;4992869;28;20571;-49
2022/12/28 12:07:26;;;;;;;2.80;2.60;;;;;;;;;;4994079;28;20206;-49
2022/12/28 12:10:10;;;;;;;2.60;2.40;;;;;;;;;;4993974;28;20603;-48
2022/12/28 12:12:46;;;;;;;2.60;2.40;;;;;;;;;;4992937;28;20202;-50
2022/12/28 12:15:14;;;;;;;2.63;2.43;;;;;;;;;;4993914;28;20719;-49
2022/12/28 12:17:43;;;;;;;2.40;2.20;;;;;;;;;;4993654;28;20202;-49
2022/12/28 12:20:16;;;;;;;2.27;2.10;;;;;;;;;;4993730;28;20672;-48
2022/12/28 12:22:47;;;;;;;2.20;2.00;;;;;;;;;;4993907;28;20198;-48
2022/12/28 12:25:15;;;;;;;3.80;2.10;;;;;;;;;;4994035;28;20225;-49
2022/12/28 12:27:43;;;;;;;2.33;2.13;;;;;;;;;;4993951;28;20207;-49
2022/12/28 12:30:13;;;;;;;3.67;2.20;;;;;;;;;;4994518;28;20260;-49
2022/12/28 12:32:43;;;;;;;2.03;1.90;;;;;;;;;;4993688;28;20205;-48
2022/12/28 12:35:13;;;;;;;2.37;2.13;;;;;;;;;;4993489;28;20218;-50
2022/12/28 12:37:44;;;;;;;2.03;1.93;;;;;;;;;;4993520;28;20238;-49
2022/12/28 12:40:18;;;;;;;2.27;2.17;;;;;;;;;;4993429;28;20709;-48
2022/12/28 12:42:51;;;;;;;1.90;1.80;;;;;;;;;;4993519;28;20212;-49
2022/12/28 12:45:23;;;;;;;2.30;2.10;;;;;;;;;;4993429;28;20653;-48
2022/12/28 12:47:57;;;;;;;3.03;2.73;;;;;;;;;;4993278;28;20213;-49
2022/12/28 12:50:36;;;;;;;2.30;2.20;;;;;;;;;;4993328;28;20665;-48
2022/12/28 12:53:05;;;;;;;2.10;2.00;;;;;;;;;;4993326;28;20673;-50
2022/12/28 12:55:45;;;;;;;2.10;2.00;;;;;;;;;;4992960;28;20281;-48
2022/12/28 12:58:16;;;;;;;2.50;2.30;;;;;;;;;;4993094;28;20210;-48
2022/12/28 13:00:49;;;;;;;2.50;2.30;;;;;;;;;;4988233;28;20206;-49
2022/12/28 13:03:18;;;;;;;2.80;2.60;;;;;;;;;;4991956;28;20217;-48
2022/12/28 13:05:49;;;;;;;2.93;2.50;;;;;;;;;;4992050;28;20201;-50
2022/12/28 13:08:19;;;;;;;2.80;2.50;;;;;;;;;;4992327;28;20202;-50
2022/12/28 13:10:45;;;;;;;3.03;2.73;;;;;;;;;;4991911;28;20257;-50
2022/12/28 13:13:17;;;;;;;4.23;3.10;;;;;;;;;;4992349;28;20198;-49
2022/12/28 13:15:43;;;;;;;3.27;2.97;;;;;;;;;;4992299;28;20202;-50
2022/12/28 13:18:16;;;;;;;3.83;3.20;;;;;;;;;;4992217;28;20194;-50
2022/12/28 13:20:51;;;;;;;3.30;3.00;;;;;;;;;;4992139;28;20278;-49
2022/12/28 13:23:22;;;;;;;3.80;3.20;;;;;;;;;;4991770;28;20281;-49
2022/12/28 13:25:49;;;;;;;4.47;3.50;;;;;;;;;;4992017;28;20285;-51
2022/12/28 13:28:19;;;;;;;4.00;3.60;;;;;;;;;;4992098;28;20206;-50
2022/12/28 13:30:54;;;;;;;3.57;3.20;;;;;;;;;;4992019;28;20241;-48
2022/12/28 13:33:21;;;;;;;3.47;3.17;;;;;;;;;;4992178;28;20202;-49
2022/12/28 13:35:47;;;;;;;4.10;3.70;;;;;;;;;;4992192;28;20229;-49
2022/12/28 13:38:13;;;;;;;3.70;3.40;;;;;;;;;;4991975;28;20202;-49
2022/12/28 13:40:47;;;;;;;4.23;3.93;;;;;;;;;;4991944;28;20257;-49
2022/12/28 13:43:40;;;;;;;4.17;3.63;;;;;;;;;;4989938;28;20312;-50
2022/12/28 13:46:08;;;;;;;4.20;3.80;;;;;;;;;;4991653;28;20206;-49
2022/12/28 13:48:35;;;;;;;4.17;3.87;;;;;;;;;;4991533;28;20226;-49
2022/12/28 13:51:01;;;;;;;3.60;3.30;;;;;;;;;;4991579;28;20656;-49
2022/12/28 13:53:29;;;;;;;6.23;4.07;;;;;;;;;;4991527;28;20249;-49
2022/12/28 13:55:58;;;;;;;3.90;3.60;;;;;;;;;;4991848;28;20280;-49
2022/12/28 13:58:26;;;;;;;4.33;3.37;;;;;;;;;;4991469;28;20202;-50
2022/12/28 14:00:53;;;;;;;3.53;3.23;;;;;;;;;;4991522;28;20202;-49
2022/12/28 14:03:20;;;;;;;3.60;3.30;;;;;;;;;;4991402;28;20198;-49
2022/12/28 14:05:48;;;;;;;3.47;3.17;;;;;;;;;;4991746;28;20257;-49
2022/12/28 14:08:15;;;;;;;5.33;2.90;;;;;;;;;;4991867;28;20268;-49
2022/12/28 14:10:41;;;;;;;2.90;2.70;;;;;;;;;;4991892;28;20202;-49
2022/12/28 14:13:09;;;;;;;3.70;3.00;;;;;;;;;;4991790;28;20190;-50
2022/12/28 14:15:35;;;;;;;3.30;3.00;;;;;;;;;;4991834;28;20784;-49
2022/12/28 14:18:02;;;;;;;2.90;2.70;;;;;;;;;;4991679;28;20201;-49
2022/12/28 14:20:28;;;;;;;2.83;2.63;;;;;;;;;;4991784;28;20201;-50
2022/12/28 14:22:54;;;;;;;3.23;2.70;;;;;;;;;;4992053;28;20257;-49
2022/12/28 14:25:21;;;;;;;3.27;2.97;;;;;;;;;;4991921;28;20613;-49
2022/12/28 14:27:53;;;;;;;2.73;2.53;;;;;;;;;;4991656;28;20206;-50
2022/12/28 14:30:22;;;;;;;3.20;2.90;;;;;;;;;;4991788;28;20206;-49
2022/12/28 14:32:48;;;;;;;3.20;2.43;;;;;;;;;;4991597;28;20244;-49
2022/12/28 14:35:17;;;;;;;6.20;2.60;;;;;;;;;;4992548;28;20222;-49
2022/12/28 14:37:45;;;;;;;3.23;2.50;;;;;;;;;;4995814;28;20272;-49
2022/12/28 14:40:18;;;;;;;2.63;2.00;;;;;;;;;;4995698;28;20245;-51
2022/12/28 14:42:48;;;;;;;2.50;2.30;;;;;;;;;;4995528;28;20225;-50
2022/12/28 14:45:35;;;;;;;2.63;2.30;;;;;;;;;;4995593;28;20260;-51
2022/12/28 14:48:01;;;;;;;2.60;2.40;;;;;;;;;;4995948;28;20210;-50
2022/12/28 14:50:27;;;;;;;3.10;2.30;;;;;;;;;;4995221;28;20212;-50
2022/12/28 14:53:01;;;;;;;3.80;2.30;;;;;;;;;;4995585;28;20636;-49
2022/12/28 14:55:30;;;;;;;4.83;2.40;;;;;;;;;;4995508;28;20198;-49
2022/12/28 14:57:58;;;;;;;2.70;2.50;;;;;;;;;;4995405;28;20206;-49
2022/12/28 15:00:26;;;;;;;2.33;2.23;;;;;;;;;;4995282;28;20202;-49
2022/12/28 15:02:54;;;;;;;2.97;2.77;;;;;;;;;;4996150;28;20206;-49
2022/12/28 15:05:36;;;;;;;3.20;2.90;;;;;;;;;;4995553;28;20202;-49
2022/12/28 15:08:03;;;;;;;3.50;3.20;;;;;;;;;;4995163;28;20704;-49
2022/12/28 15:10:29;;;;;;;5.50;3.20;;;;;;;;;;4994871;28;20712;-50
2022/12/28 15:12:55;;;;;;;4.40;3.17;;;;;;;;;;4993083;28;20297;-50
2022/12/28 15:15:21;;;;;;;3.83;3.53;;;;;;;;;;4994758;28;20229;-49
2022/12/28 15:17:47;;;;;;;3.73;3.43;;;;;;;;;;4994609;28;20329;-49